sensor_id;sensor_type;location;lat;lon;timestamp;P1;durP1;ratioP1;P2;durP2;ratioP2
54247;SDS011;40161;39.768;2.722;2023-07-08T00:02:23;11.02;;;4.13;;
54247;SDS011;40161;39.768;2.722;2023-07-08T00:04:49;6.53;;;3.03;;
54247;SDS011;40161;39.768;2.722;2023-07-08T00:07:15;9.88;;;3.85;;
54247;SDS011;40161;39.768;2.722;2023-07-08T00:09:45;10.45;;;3.42;;
54247;SDS011;40161;39.768;2.722;2023-07-08T00:12:11;8.15;;;3.53;;
54247;SDS011;40161;39.768;2.722;2023-07-08T00:14:37;10.00;;;3.53;;
54247;SDS011;40161;39.768;2.722;2023-07-08T00:17:04;9.40;;;3.50;;
54247;SDS011;40161;39.768;2.722;2023-07-08T00:19:35;9.73;;;3.78;;
54247;SDS011;40161;39.768;2.722;2023-07-08T00:22:01;9.52;;;3.63;;
54247;SDS011;40161;39.768;2.722;2023-07-08T00:24:26;8.05;;;3.35;;
54247;SDS011;40161;39.768;2.722;2023-07-08T00:26:52;11.70;;;4.03;;
54247;SDS011;40161;39.768;2.722;2023-07-08T00:29:17;11.13;;;3.78;;
54247;SDS011;40161;39.768;2.722;2023-07-08T00:31:43;9.43;;;3.85;;
54247;SDS011;40161;39.768;2.722;2023-07-08T00:34:08;8.05;;;3.70;;
54247;SDS011;40161;39.768;2.722;2023-07-08T00:36:34;9.52;;;4.15;;
54247;SDS011;40161;39.768;2.722;2023-07-08T00:39:00;10.82;;;4.10;;
54247;SDS011;40161;39.768;2.722;2023-07-08T00:41:27;11.23;;;3.40;;
54247;SDS011;40161;39.768;2.722;2023-07-08T00:44:07;9.95;;;3.83;;
54247;SDS011;40161;39.768;2.722;2023-07-08T00:46:52;10.23;;;4.03;;
54247;SDS011;40161;39.768;2.722;2023-07-08T00:54:46;12.00;;;4.05;;
54247;SDS011;40161;39.768;2.722;2023-07-08T00:57:14;11.95;;;4.40;;
54247;SDS011;40161;39.768;2.722;2023-07-08T00:59:48;10.63;;;4.05;;
54247;SDS011;40161;39.768;2.722;2023-07-08T01:02:21;10.27;;;4.68;;
54247;SDS011;40161;39.768;2.722;2023-07-08T01:07:24;9.02;;;3.30;;
54247;SDS011;40161;39.768;2.722;2023-07-08T01:09:52;9.45;;;3.47;;
54247;SDS011;40161;39.768;2.722;2023-07-08T01:14:51;7.53;;;3.83;;
54247;SDS011;40161;39.768;2.722;2023-07-08T01:17:18;10.13;;;3.47;;
54247;SDS011;40161;39.768;2.722;2023-07-08T01:19:45;8.32;;;3.50;;
54247;SDS011;40161;39.768;2.722;2023-07-08T01:22:12;10.38;;;3.83;;
54247;SDS011;40161;39.768;2.722;2023-07-08T01:24:38;10.35;;;4.10;;
54247;SDS011;40161;39.768;2.722;2023-07-08T01:27:08;9.10;;;3.83;;
54247;SDS011;40161;39.768;2.722;2023-07-08T01:29:38;9.67;;;3.40;;
54247;SDS011;40161;39.768;2.722;2023-07-08T01:32:03;10.55;;;3.78;;
54247;SDS011;40161;39.768;2.722;2023-07-08T01:34:31;7.68;;;3.75;;
54247;SDS011;40161;39.768;2.722;2023-07-08T01:36:57;9.25;;;4.15;;
54247;SDS011;40161;39.768;2.722;2023-07-08T01:39:26;8.32;;;3.70;;
54247;SDS011;40161;39.768;2.722;2023-07-08T01:41:53;10.10;;;3.75;;
54247;SDS011;40161;39.768;2.722;2023-07-08T01:44:26;13.50;;;4.45;;
54247;SDS011;40161;39.768;2.722;2023-07-08T01:46:57;12.65;;;4.25;;
54247;SDS011;40161;39.768;2.722;2023-07-08T01:49:36;8.00;;;3.47;;
54247;SDS011;40161;39.768;2.722;2023-07-08T01:52:04;12.88;;;4.22;;
54247;SDS011;40161;39.768;2.722;2023-07-08T01:54:31;9.65;;;4.05;;
54247;SDS011;40161;39.768;2.722;2023-07-08T01:56:57;10.63;;;3.85;;
54247;SDS011;40161;39.768;2.722;2023-07-08T01:59:23;9.52;;;4.22;;
54247;SDS011;40161;39.768;2.722;2023-07-08T02:01:49;8.57;;;3.58;;
54247;SDS011;40161;39.768;2.722;2023-07-08T02:04:19;9.02;;;3.78;;
54247;SDS011;40161;39.768;2.722;2023-07-08T02:06:50;12.15;;;4.13;;
54247;SDS011;40161;39.768;2.722;2023-07-08T02:09:19;8.02;;;3.90;;
54247;SDS011;40161;39.768;2.722;2023-07-08T02:11:45;11.43;;;3.78;;
54247;SDS011;40161;39.768;2.722;2023-07-08T02:14:10;12.57;;;3.92;;
54247;SDS011;40161;39.768;2.722;2023-07-08T02:16:36;9.85;;;3.60;;
54247;SDS011;40161;39.768;2.722;2023-07-08T02:19:01;10.77;;;3.92;;
54247;SDS011;40161;39.768;2.722;2023-07-08T02:21:27;8.65;;;3.97;;
54247;SDS011;40161;39.768;2.722;2023-07-08T02:23:56;8.50;;;3.63;;
54247;SDS011;40161;39.768;2.722;2023-07-08T02:26:22;11.23;;;4.03;;
54247;SDS011;40161;39.768;2.722;2023-07-08T02:28:48;9.57;;;3.85;;
54247;SDS011;40161;39.768;2.722;2023-07-08T02:31:14;9.73;;;3.83;;
54247;SDS011;40161;39.768;2.722;2023-07-08T02:33:40;11.52;;;4.00;;
54247;SDS011;40161;39.768;2.722;2023-07-08T02:36:05;10.23;;;3.95;;
54247;SDS011;40161;39.768;2.722;2023-07-08T02:38:31;9.73;;;3.47;;
54247;SDS011;40161;39.768;2.722;2023-07-08T02:40:57;10.73;;;3.70;;
54247;SDS011;40161;39.768;2.722;2023-07-08T02:43:23;10.65;;;4.00;;
54247;SDS011;40161;39.768;2.722;2023-07-08T02:45:49;10.90;;;3.67;;
54247;SDS011;40161;39.768;2.722;2023-07-08T02:48:17;8.32;;;3.80;;
54247;SDS011;40161;39.768;2.722;2023-07-08T02:50:45;10.45;;;4.50;;
54247;SDS011;40161;39.768;2.722;2023-07-08T02:53:11;9.40;;;4.00;;
54247;SDS011;40161;39.768;2.722;2023-07-08T02:55:40;8.80;;;3.92;;
54247;SDS011;40161;39.768;2.722;2023-07-08T02:58:07;10.13;;;3.90;;
54247;SDS011;40161;39.768;2.722;2023-07-08T03:00:33;10.20;;;3.88;;
54247;SDS011;40161;39.768;2.722;2023-07-08T03:03:03;11.32;;;4.75;;
54247;SDS011;40161;39.768;2.722;2023-07-08T03:05:29;10.20;;;4.13;;
54247;SDS011;40161;39.768;2.722;2023-07-08T03:07:55;8.32;;;3.60;;
54247;SDS011;40161;39.768;2.722;2023-07-08T03:10:21;9.18;;;3.53;;
54247;SDS011;40161;39.768;2.722;2023-07-08T03:12:47;8.50;;;3.83;;
54247;SDS011;40161;39.768;2.722;2023-07-08T03:15:12;8.18;;;3.40;;
54247;SDS011;40161;39.768;2.722;2023-07-08T03:17:38;10.38;;;3.63;;
54247;SDS011;40161;39.768;2.722;2023-07-08T03:20:04;11.38;;;4.13;;
54247;SDS011;40161;39.768;2.722;2023-07-08T03:22:32;9.18;;;3.92;;
54247;SDS011;40161;39.768;2.722;2023-07-08T03:24:58;10.55;;;4.25;;
54247;SDS011;40161;39.768;2.722;2023-07-08T03:27:23;9.73;;;4.15;;
54247;SDS011;40161;39.768;2.722;2023-07-08T03:29:49;8.02;;;3.83;;
54247;SDS011;40161;39.768;2.722;2023-07-08T03:32:14;10.13;;;4.22;;
54247;SDS011;40161;39.768;2.722;2023-07-08T03:34:39;10.00;;;4.22;;
54247;SDS011;40161;39.768;2.722;2023-07-08T03:37:05;9.18;;;3.95;;
54247;SDS011;40161;39.768;2.722;2023-07-08T03:39:31;8.90;;;4.43;;
54247;SDS011;40161;39.768;2.722;2023-07-08T03:41:57;14.43;;;4.93;;
54247;SDS011;40161;39.768;2.722;2023-07-08T03:44:23;8.35;;;4.57;;
54247;SDS011;40161;39.768;2.722;2023-07-08T03:46:49;11.07;;;4.22;;
54247;SDS011;40161;39.768;2.722;2023-07-08T03:49:14;9.23;;;4.50;;
54247;SDS011;40161;39.768;2.722;2023-07-08T03:51:41;8.30;;;3.95;;
54247;SDS011;40161;39.768;2.722;2023-07-08T03:54:11;12.25;;;4.15;;
54247;SDS011;40161;39.768;2.722;2023-07-08T03:56:38;9.20;;;4.20;;
54247;SDS011;40161;39.768;2.722;2023-07-08T03:59:03;10.73;;;4.22;;
54247;SDS011;40161;39.768;2.722;2023-07-08T04:01:29;10.70;;;4.13;;
54247;SDS011;40161;39.768;2.722;2023-07-08T04:03:55;8.68;;;4.35;;
54247;SDS011;40161;39.768;2.722;2023-07-08T04:06:22;8.93;;;3.72;;
54247;SDS011;40161;39.768;2.722;2023-07-08T04:08:49;10.38;;;4.03;;
54247;SDS011;40161;39.768;2.722;2023-07-08T04:11:20;7.93;;;3.80;;
54247;SDS011;40161;39.768;2.722;2023-07-08T04:13:48;10.43;;;3.90;;
54247;SDS011;40161;39.768;2.722;2023-07-08T04:16:15;9.23;;;3.88;;
54247;SDS011;40161;39.768;2.722;2023-07-08T04:18:53;8.95;;;4.00;;
54247;SDS011;40161;39.768;2.722;2023-07-08T04:21:20;9.93;;;3.95;;
54247;SDS011;40161;39.768;2.722;2023-07-08T04:23:45;10.93;;;4.38;;
54247;SDS011;40161;39.768;2.722;2023-07-08T04:26:11;8.80;;;4.20;;
54247;SDS011;40161;39.768;2.722;2023-07-08T04:28:37;10.88;;;4.30;;
54247;SDS011;40161;39.768;2.722;2023-07-08T04:31:03;9.85;;;3.90;;
54247;SDS011;40161;39.768;2.722;2023-07-08T04:33:29;10.32;;;4.47;;
54247;SDS011;40161;39.768;2.722;2023-07-08T04:35:55;10.23;;;4.75;;
54247;SDS011;40161;39.768;2.722;2023-07-08T04:38:22;8.50;;;4.07;;
54247;SDS011;40161;39.768;2.722;2023-07-08T04:40:50;10.18;;;3.80;;
54247;SDS011;40161;39.768;2.722;2023-07-08T04:43:17;7.50;;;3.78;;
54247;SDS011;40161;39.768;2.722;2023-07-08T04:45:44;12.68;;;4.70;;
54247;SDS011;40161;39.768;2.722;2023-07-08T04:48:15;9.60;;;4.40;;
54247;SDS011;40161;39.768;2.722;2023-07-08T04:53:11;12.43;;;4.30;;
54247;SDS011;40161;39.768;2.722;2023-07-08T04:55:38;9.82;;;4.60;;
54247;SDS011;40161;39.768;2.722;2023-07-08T04:58:06;9.57;;;4.20;;
54247;SDS011;40161;39.768;2.722;2023-07-08T05:00:32;11.18;;;4.65;;
54247;SDS011;40161;39.768;2.722;2023-07-08T05:02:58;10.55;;;4.18;;
54247;SDS011;40161;39.768;2.722;2023-07-08T05:05:23;7.55;;;4.13;;
54247;SDS011;40161;39.768;2.722;2023-07-08T05:07:49;10.10;;;4.03;;
54247;SDS011;40161;39.768;2.722;2023-07-08T05:10:15;10.88;;;4.22;;
54247;SDS011;40161;39.768;2.722;2023-07-08T05:12:42;9.40;;;4.25;;
54247;SDS011;40161;39.768;2.722;2023-07-08T05:15:08;10.05;;;4.10;;
54247;SDS011;40161;39.768;2.722;2023-07-08T05:17:34;8.93;;;4.13;;
54247;SDS011;40161;39.768;2.722;2023-07-08T05:20:00;11.18;;;4.50;;
54247;SDS011;40161;39.768;2.722;2023-07-08T05:22:26;11.02;;;4.20;;
54247;SDS011;40161;39.768;2.722;2023-07-08T05:24:52;8.38;;;4.07;;
54247;SDS011;40161;39.768;2.722;2023-07-08T05:27:20;8.90;;;3.90;;
54247;SDS011;40161;39.768;2.722;2023-07-08T05:29:49;10.27;;;3.85;;
54247;SDS011;40161;39.768;2.722;2023-07-08T05:32:15;9.10;;;3.80;;
54247;SDS011;40161;39.768;2.722;2023-07-08T05:34:42;8.40;;;4.07;;
54247;SDS011;40161;39.768;2.722;2023-07-08T05:37:08;9.10;;;3.72;;
54247;SDS011;40161;39.768;2.722;2023-07-08T05:39:35;9.32;;;3.92;;
54247;SDS011;40161;39.768;2.722;2023-07-08T05:42:00;12.43;;;4.30;;
54247;SDS011;40161;39.768;2.722;2023-07-08T05:44:26;10.18;;;4.30;;
54247;SDS011;40161;39.768;2.722;2023-07-08T05:46:51;10.82;;;4.35;;
54247;SDS011;40161;39.768;2.722;2023-07-08T05:49:17;10.13;;;4.40;;
54247;SDS011;40161;39.768;2.722;2023-07-08T05:51:43;9.18;;;4.07;;
54247;SDS011;40161;39.768;2.722;2023-07-08T05:54:09;9.73;;;4.35;;
54247;SDS011;40161;39.768;2.722;2023-07-08T05:56:35;9.23;;;3.85;;
54247;SDS011;40161;39.768;2.722;2023-07-08T05:59:01;9.43;;;3.85;;
54247;SDS011;40161;39.768;2.722;2023-07-08T06:01:27;10.88;;;4.25;;
54247;SDS011;40161;39.768;2.722;2023-07-08T06:03:52;8.60;;;4.22;;
54247;SDS011;40161;39.768;2.722;2023-07-08T06:06:18;9.32;;;3.88;;
54247;SDS011;40161;39.768;2.722;2023-07-08T06:08:43;12.07;;;4.30;;
54247;SDS011;40161;39.768;2.722;2023-07-08T06:11:09;13.52;;;4.65;;
54247;SDS011;40161;39.768;2.722;2023-07-08T06:13:34;9.20;;;4.30;;
54247;SDS011;40161;39.768;2.722;2023-07-08T06:16:00;14.55;;;4.32;;
54247;SDS011;40161;39.768;2.722;2023-07-08T06:18:26;9.10;;;4.35;;
54247;SDS011;40161;39.768;2.722;2023-07-08T06:20:52;10.82;;;4.32;;
54247;SDS011;40161;39.768;2.722;2023-07-08T06:23:18;10.32;;;5.20;;
54247;SDS011;40161;39.768;2.722;2023-07-08T06:25:44;8.95;;;5.00;;
54247;SDS011;40161;39.768;2.722;2023-07-08T06:28:10;11.40;;;4.75;;
54247;SDS011;40161;39.768;2.722;2023-07-08T06:30:35;11.18;;;4.60;;
54247;SDS011;40161;39.768;2.722;2023-07-08T06:33:02;9.32;;;4.00;;
54247;SDS011;40161;39.768;2.722;2023-07-08T06:35:28;12.82;;;4.75;;
54247;SDS011;40161;39.768;2.722;2023-07-08T06:37:54;11.05;;;4.75;;
54247;SDS011;40161;39.768;2.722;2023-07-08T06:40:19;10.65;;;4.80;;
54247;SDS011;40161;39.768;2.722;2023-07-08T06:42:45;11.85;;;4.90;;
54247;SDS011;40161;39.768;2.722;2023-07-08T06:45:11;13.00;;;4.80;;
54247;SDS011;40161;39.768;2.722;2023-07-08T06:47:36;9.85;;;4.28;;
54247;SDS011;40161;39.768;2.722;2023-07-08T06:50:02;12.77;;;4.35;;
54247;SDS011;40161;39.768;2.722;2023-07-08T06:52:28;13.10;;;4.57;;
54247;SDS011;40161;39.768;2.722;2023-07-08T06:54:59;13.37;;;4.87;;
54247;SDS011;40161;39.768;2.722;2023-07-08T06:57:26;13.60;;;4.38;;
54247;SDS011;40161;39.768;2.722;2023-07-08T06:59:52;14.02;;;5.22;;
54247;SDS011;40161;39.768;2.722;2023-07-08T07:02:17;12.05;;;5.10;;
54247;SDS011;40161;39.768;2.722;2023-07-08T07:04:43;13.15;;;4.75;;
54247;SDS011;40161;39.768;2.722;2023-07-08T07:07:09;12.23;;;4.50;;
54247;SDS011;40161;39.768;2.722;2023-07-08T07:09:34;9.55;;;3.92;;
54247;SDS011;40161;39.768;2.722;2023-07-08T07:12:00;14.00;;;4.68;;
54247;SDS011;40161;39.768;2.722;2023-07-08T07:14:26;10.10;;;4.95;;
54247;SDS011;40161;39.768;2.722;2023-07-08T07:16:51;10.95;;;4.53;;
54247;SDS011;40161;39.768;2.722;2023-07-08T07:19:17;13.32;;;4.22;;
54247;SDS011;40161;39.768;2.722;2023-07-08T07:21:43;13.95;;;5.25;;
54247;SDS011;40161;39.768;2.722;2023-07-08T07:24:08;12.45;;;5.35;;
54247;SDS011;40161;39.768;2.722;2023-07-08T07:26:34;10.23;;;4.43;;
54247;SDS011;40161;39.768;2.722;2023-07-08T07:29:01;10.77;;;4.40;;
54247;SDS011;40161;39.768;2.722;2023-07-08T07:31:27;10.93;;;4.32;;
54247;SDS011;40161;39.768;2.722;2023-07-08T07:33:53;15.65;;;5.38;;
54247;SDS011;40161;39.768;2.722;2023-07-08T07:36:18;14.48;;;4.45;;
54247;SDS011;40161;39.768;2.722;2023-07-08T07:38:44;13.48;;;5.30;;
54247;SDS011;40161;39.768;2.722;2023-07-08T07:41:10;12.38;;;5.10;;
54247;SDS011;40161;39.768;2.722;2023-07-08T07:43:37;14.05;;;4.78;;
54247;SDS011;40161;39.768;2.722;2023-07-08T07:46:03;12.70;;;4.30;;
54247;SDS011;40161;39.768;2.722;2023-07-08T07:48:30;15.20;;;4.65;;
54247;SDS011;40161;39.768;2.722;2023-07-08T07:50:56;13.25;;;4.18;;
54247;SDS011;40161;39.768;2.722;2023-07-08T07:53:22;15.07;;;4.38;;
54247;SDS011;40161;39.768;2.722;2023-07-08T07:55:55;14.77;;;4.55;;
54247;SDS011;40161;39.768;2.722;2023-07-08T07:58:21;12.55;;;4.35;;
54247;SDS011;40161;39.768;2.722;2023-07-08T08:00:47;14.90;;;4.68;;
54247;SDS011;40161;39.768;2.722;2023-07-08T08:03:13;14.20;;;4.50;;
54247;SDS011;40161;39.768;2.722;2023-07-08T08:05:38;12.02;;;4.75;;
54247;SDS011;40161;39.768;2.722;2023-07-08T08:08:04;14.68;;;4.88;;
54247;SDS011;40161;39.768;2.722;2023-07-08T08:10:29;11.73;;;4.85;;
54247;SDS011;40161;39.768;2.722;2023-07-08T08:12:57;11.30;;;4.20;;
54247;SDS011;40161;39.768;2.722;2023-07-08T08:15:23;12.93;;;4.13;;
54247;SDS011;40161;39.768;2.722;2023-07-08T08:17:48;15.20;;;4.50;;
54247;SDS011;40161;39.768;2.722;2023-07-08T08:20:17;12.98;;;4.20;;
54247;SDS011;40161;39.768;2.722;2023-07-08T08:22:43;16.67;;;4.50;;
54247;SDS011;40161;39.768;2.722;2023-07-08T08:25:09;11.82;;;3.70;;
54247;SDS011;40161;39.768;2.722;2023-07-08T08:27:35;12.88;;;4.43;;
54247;SDS011;40161;39.768;2.722;2023-07-08T08:30:01;13.32;;;4.20;;
54247;SDS011;40161;39.768;2.722;2023-07-08T08:32:27;12.65;;;4.65;;
54247;SDS011;40161;39.768;2.722;2023-07-08T08:34:53;10.30;;;3.70;;
54247;SDS011;40161;39.768;2.722;2023-07-08T08:37:20;15.80;;;4.60;;
54247;SDS011;40161;39.768;2.722;2023-07-08T08:39:46;14.27;;;4.47;;
54247;SDS011;40161;39.768;2.722;2023-07-08T08:45:13;14.13;;;4.70;;
54247;SDS011;40161;39.768;2.722;2023-07-08T08:47:42;12.50;;;4.38;;
54247;SDS011;40161;39.768;2.722;2023-07-08T08:50:30;11.15;;;3.60;;
54247;SDS011;40161;39.768;2.722;2023-07-08T08:52:59;15.23;;;4.38;;
54247;SDS011;40161;39.768;2.722;2023-07-08T08:55:28;13.00;;;4.30;;
54247;SDS011;40161;39.768;2.722;2023-07-08T09:00:47;11.90;;;4.30;;
54247;SDS011;40161;39.768;2.722;2023-07-08T09:08:56;12.68;;;5.10;;
54247;SDS011;40161;39.768;2.722;2023-07-08T09:14:03;14.32;;;4.22;;
54247;SDS011;40161;39.768;2.722;2023-07-08T09:16:45;11.20;;;3.95;;
54247;SDS011;40161;39.768;2.722;2023-07-08T09:19:41;12.77;;;4.55;;
54247;SDS011;40161;39.768;2.722;2023-07-08T09:22:19;13.73;;;4.50;;
54247;SDS011;40161;39.768;2.722;2023-07-08T09:24:59;13.65;;;4.47;;
54247;SDS011;40161;39.768;2.722;2023-07-08T09:30:14;10.43;;;4.28;;
54247;SDS011;40161;39.768;2.722;2023-07-08T09:32:41;16.08;;;5.00;;
54247;SDS011;40161;39.768;2.722;2023-07-08T09:35:07;14.75;;;4.25;;
54247;SDS011;40161;39.768;2.722;2023-07-08T09:37:37;16.58;;;4.80;;
54247;SDS011;40161;39.768;2.722;2023-07-08T09:43:05;13.00;;;4.45;;
54247;SDS011;40161;39.768;2.722;2023-07-08T09:45:50;12.50;;;4.45;;
54247;SDS011;40161;39.768;2.722;2023-07-08T09:48:26;13.77;;;4.50;;
54247;SDS011;40161;39.768;2.722;2023-07-08T09:50:53;14.02;;;4.65;;
54247;SDS011;40161;39.768;2.722;2023-07-08T09:53:21;11.88;;;4.88;;
54247;SDS011;40161;39.768;2.722;2023-07-08T09:55:47;15.60;;;5.03;;
54247;SDS011;40161;39.768;2.722;2023-07-08T09:58:15;15.18;;;4.90;;
54247;SDS011;40161;39.768;2.722;2023-07-08T10:00:53;14.18;;;5.13;;
54247;SDS011;40161;39.768;2.722;2023-07-08T10:03:22;15.98;;;4.75;;
54247;SDS011;40161;39.768;2.722;2023-07-08T10:05:51;12.00;;;4.03;;
54247;SDS011;40161;39.768;2.722;2023-07-08T10:08:18;14.75;;;4.32;;
54247;SDS011;40161;39.768;2.722;2023-07-08T10:10:46;12.20;;;4.40;;
54247;SDS011;40161;39.768;2.722;2023-07-08T10:16:00;14.48;;;4.82;;
54247;SDS011;40161;39.768;2.722;2023-07-08T10:18:45;15.23;;;4.32;;
54247;SDS011;40161;39.768;2.722;2023-07-08T10:21:20;13.90;;;5.15;;
54247;SDS011;40161;39.768;2.722;2023-07-08T10:26:44;13.68;;;4.68;;
54247;SDS011;40161;39.768;2.722;2023-07-08T10:29:25;16.25;;;4.85;;
54247;SDS011;40161;39.768;2.722;2023-07-08T10:45:28;13.05;;;4.90;;
54247;SDS011;40161;39.768;2.722;2023-07-08T10:51:47;14.37;;;4.90;;
54247;SDS011;40161;39.768;2.722;2023-07-08T10:56:20;15.60;;;4.90;;
54247;SDS011;40161;39.768;2.722;2023-07-08T11:01:48;12.55;;;4.82;;
54247;SDS011;40161;39.768;2.722;2023-07-08T11:10:28;12.35;;;4.72;;
54247;SDS011;40161;39.768;2.722;2023-07-08T11:13:03;12.97;;;4.67;;
54247;SDS011;40161;39.768;2.722;2023-07-08T11:15:31;10.60;;;4.25;;
54247;SDS011;40161;39.768;2.722;2023-07-08T11:23:43;16.27;;;5.07;;
54247;SDS011;40161;39.768;2.722;2023-07-08T11:29:37;20.42;;;5.88;;
54247;SDS011;40161;39.768;2.722;2023-07-08T11:32:05;12.45;;;5.00;;
54247;SDS011;40161;39.768;2.722;2023-07-08T11:34:34;17.95;;;4.97;;
54247;SDS011;40161;39.768;2.722;2023-07-08T11:37:02;14.50;;;5.20;;
54247;SDS011;40161;39.768;2.722;2023-07-08T11:39:33;14.55;;;4.60;;
54247;SDS011;40161;39.768;2.722;2023-07-08T11:44:44;12.05;;;4.35;;
54247;SDS011;40161;39.768;2.722;2023-07-08T11:47:18;16.08;;;5.18;;
54247;SDS011;40161;39.768;2.722;2023-07-08T11:49:47;13.52;;;4.70;;
54247;SDS011;40161;39.768;2.722;2023-07-08T11:52:16;16.85;;;4.95;;
54247;SDS011;40161;39.768;2.722;2023-07-08T11:54:45;13.10;;;4.18;;
54247;SDS011;40161;39.768;2.722;2023-07-08T11:57:19;12.98;;;4.65;;
54247;SDS011;40161;39.768;2.722;2023-07-08T12:00:29;15.07;;;4.68;;
54247;SDS011;40161;39.768;2.722;2023-07-08T12:02:57;15.98;;;4.43;;
54247;SDS011;40161;39.768;2.722;2023-07-08T12:05:35;14.27;;;4.55;;
54247;SDS011;40161;39.768;2.722;2023-07-08T12:08:11;15.43;;;4.60;;
54247;SDS011;40161;39.768;2.722;2023-07-08T12:10:39;12.40;;;4.22;;
54247;SDS011;40161;39.768;2.722;2023-07-08T12:13:12;14.07;;;4.90;;
54247;SDS011;40161;39.768;2.722;2023-07-08T12:15:40;14.35;;;4.38;;
54247;SDS011;40161;39.768;2.722;2023-07-08T12:18:09;15.45;;;5.05;;
54247;SDS011;40161;39.768;2.722;2023-07-08T12:20:41;14.35;;;4.28;;
54247;SDS011;40161;39.768;2.722;2023-07-08T12:23:11;11.63;;;4.55;;
54247;SDS011;40161;39.768;2.722;2023-07-08T12:25:38;13.73;;;4.50;;
54247;SDS011;40161;39.768;2.722;2023-07-08T12:28:04;12.10;;;4.15;;
54247;SDS011;40161;39.768;2.722;2023-07-08T12:30:30;13.32;;;4.13;;
54247;SDS011;40161;39.768;2.722;2023-07-08T12:32:57;12.80;;;4.32;;
54247;SDS011;40161;39.768;2.722;2023-07-08T12:35:28;16.13;;;4.40;;
54247;SDS011;40161;39.768;2.722;2023-07-08T12:37:57;12.13;;;4.72;;
54247;SDS011;40161;39.768;2.722;2023-07-08T12:40:26;14.32;;;4.18;;
54247;SDS011;40161;39.768;2.722;2023-07-08T12:42:53;17.13;;;5.10;;
54247;SDS011;40161;39.768;2.722;2023-07-08T12:45:21;16.52;;;5.00;;
54247;SDS011;40161;39.768;2.722;2023-07-08T12:47:49;18.90;;;4.82;;
54247;SDS011;40161;39.768;2.722;2023-07-08T12:50:14;15.18;;;4.78;;
54247;SDS011;40161;39.768;2.722;2023-07-08T12:52:42;12.73;;;4.25;;
54247;SDS011;40161;39.768;2.722;2023-07-08T12:55:10;14.55;;;5.10;;
54247;SDS011;40161;39.768;2.722;2023-07-08T12:57:39;12.60;;;5.25;;
54247;SDS011;40161;39.768;2.722;2023-07-08T13:00:10;12.55;;;4.63;;
54247;SDS011;40161;39.768;2.722;2023-07-08T13:02:39;15.38;;;4.75;;
54247;SDS011;40161;39.768;2.722;2023-07-08T13:05:05;12.13;;;5.07;;
54247;SDS011;40161;39.768;2.722;2023-07-08T13:10:05;15.23;;;4.47;;
54247;SDS011;40161;39.768;2.722;2023-07-08T13:12:34;13.93;;;4.38;;
54247;SDS011;40161;39.768;2.722;2023-07-08T13:15:03;15.33;;;4.83;;
54247;SDS011;40161;39.768;2.722;2023-07-08T13:17:35;15.70;;;5.07;;
54247;SDS011;40161;39.768;2.722;2023-07-08T13:20:03;15.52;;;4.90;;
54247;SDS011;40161;39.768;2.722;2023-07-08T13:22:29;15.25;;;4.97;;
54247;SDS011;40161;39.768;2.722;2023-07-08T13:24:59;12.82;;;4.65;;
54247;SDS011;40161;39.768;2.722;2023-07-08T13:27:26;13.37;;;4.93;;
54247;SDS011;40161;39.768;2.722;2023-07-08T13:29:52;15.02;;;5.20;;
54247;SDS011;40161;39.768;2.722;2023-07-08T13:32:19;12.38;;;4.35;;
54247;SDS011;40161;39.768;2.722;2023-07-08T13:34:44;14.70;;;5.05;;
54247;SDS011;40161;39.768;2.722;2023-07-08T13:37:14;12.32;;;4.85;;
54247;SDS011;40161;39.768;2.722;2023-07-08T13:39:43;11.98;;;4.35;;
54247;SDS011;40161;39.768;2.722;2023-07-08T13:44:46;13.10;;;4.50;;
54247;SDS011;40161;39.768;2.722;2023-07-08T13:47:19;13.05;;;4.55;;
54247;SDS011;40161;39.768;2.722;2023-07-08T13:49:54;15.05;;;4.82;;
54247;SDS011;40161;39.768;2.722;2023-07-08T13:52:25;13.73;;;5.20;;
54247;SDS011;40161;39.768;2.722;2023-07-08T13:55:01;12.90;;;4.65;;
54247;SDS011;40161;39.768;2.722;2023-07-08T13:57:34;15.32;;;5.20;;
54247;SDS011;40161;39.768;2.722;2023-07-08T14:00:03;9.77;;;4.43;;
54247;SDS011;40161;39.768;2.722;2023-07-08T14:02:30;17.42;;;5.22;;
54247;SDS011;40161;39.768;2.722;2023-07-08T14:04:56;15.80;;;5.18;;
54247;SDS011;40161;39.768;2.722;2023-07-08T14:07:26;13.43;;;5.10;;
54247;SDS011;40161;39.768;2.722;2023-07-08T14:09:53;16.73;;;5.28;;
54247;SDS011;40161;39.768;2.722;2023-07-08T14:12:19;12.75;;;4.82;;
54247;SDS011;40161;39.768;2.722;2023-07-08T14:14:45;10.98;;;4.65;;
54247;SDS011;40161;39.768;2.722;2023-07-08T14:17:12;15.70;;;5.30;;
54247;SDS011;40161;39.768;2.722;2023-07-08T14:19:43;12.27;;;4.63;;
54247;SDS011;40161;39.768;2.722;2023-07-08T14:24:38;14.60;;;5.15;;
54247;SDS011;40161;39.768;2.722;2023-07-08T14:27:10;14.48;;;5.03;;
54247;SDS011;40161;39.768;2.722;2023-07-08T14:29:42;13.85;;;4.68;;
54247;SDS011;40161;39.768;2.722;2023-07-08T14:32:14;13.27;;;4.70;;
54247;SDS011;40161;39.768;2.722;2023-07-08T14:34:42;13.63;;;4.70;;
54247;SDS011;40161;39.768;2.722;2023-07-08T14:37:14;16.42;;;4.95;;
54247;SDS011;40161;39.768;2.722;2023-07-08T14:39:40;13.35;;;5.25;;
54247;SDS011;40161;39.768;2.722;2023-07-08T14:42:08;15.93;;;5.32;;
54247;SDS011;40161;39.768;2.722;2023-07-08T14:44:37;16.10;;;5.30;;
54247;SDS011;40161;39.768;2.722;2023-07-08T14:47:04;17.00;;;5.40;;
54247;SDS011;40161;39.768;2.722;2023-07-08T14:49:34;14.48;;;5.40;;
54247;SDS011;40161;39.768;2.722;2023-07-08T14:52:00;12.73;;;4.78;;
54247;SDS011;40161;39.768;2.722;2023-07-08T14:54:26;11.75;;;4.90;;
54247;SDS011;40161;39.768;2.722;2023-07-08T14:56:52;13.45;;;4.78;;
54247;SDS011;40161;39.768;2.722;2023-07-08T14:59:21;11.63;;;5.22;;
54247;SDS011;40161;39.768;2.722;2023-07-08T15:01:48;11.70;;;4.95;;
54247;SDS011;40161;39.768;2.722;2023-07-08T15:04:15;14.40;;;5.57;;
54247;SDS011;40161;39.768;2.722;2023-07-08T15:06:43;11.88;;;4.72;;
54247;SDS011;40161;39.768;2.722;2023-07-08T15:09:09;14.63;;;5.20;;
54247;SDS011;40161;39.768;2.722;2023-07-08T15:11:36;16.33;;;5.05;;
54247;SDS011;40161;39.768;2.722;2023-07-08T15:14:03;12.80;;;4.63;;
54247;SDS011;40161;39.768;2.722;2023-07-08T15:16:34;14.02;;;4.65;;
54247;SDS011;40161;39.768;2.722;2023-07-08T15:19:00;10.93;;;5.07;;
54247;SDS011;40161;39.768;2.722;2023-07-08T15:21:25;11.15;;;4.80;;
54247;SDS011;40161;39.768;2.722;2023-07-08T15:23:51;13.88;;;4.95;;
54247;SDS011;40161;39.768;2.722;2023-07-08T15:26:17;12.95;;;5.20;;
54247;SDS011;40161;39.768;2.722;2023-07-08T15:28:49;15.23;;;5.40;;
54247;SDS011;40161;39.768;2.722;2023-07-08T15:31:25;12.00;;;4.65;;
54247;SDS011;40161;39.768;2.722;2023-07-08T15:33:57;13.52;;;5.15;;
54247;SDS011;40161;39.768;2.722;2023-07-08T15:36:23;14.52;;;4.80;;
54247;SDS011;40161;39.768;2.722;2023-07-08T15:38:48;9.73;;;4.45;;
54247;SDS011;40161;39.768;2.722;2023-07-08T15:41:18;12.05;;;5.15;;
54247;SDS011;40161;39.768;2.722;2023-07-08T15:43:46;13.93;;;5.15;;
54247;SDS011;40161;39.768;2.722;2023-07-08T15:46:13;11.95;;;5.18;;
54247;SDS011;40161;39.768;2.722;2023-07-08T15:48:39;15.73;;;5.32;;
54247;SDS011;40161;39.768;2.722;2023-07-08T15:51:04;11.93;;;5.15;;
54247;SDS011;40161;39.768;2.722;2023-07-08T15:53:30;14.98;;;4.75;;
54247;SDS011;40161;39.768;2.722;2023-07-08T15:55:55;14.50;;;4.85;;
54247;SDS011;40161;39.768;2.722;2023-07-08T15:58:27;17.80;;;5.30;;
54247;SDS011;40161;39.768;2.722;2023-07-08T16:00:56;15.10;;;4.85;;
54247;SDS011;40161;39.768;2.722;2023-07-08T16:03:30;12.00;;;4.82;;
54247;SDS011;40161;39.768;2.722;2023-07-08T16:06:00;14.32;;;4.93;;
54247;SDS011;40161;39.768;2.722;2023-07-08T16:08:26;16.17;;;5.35;;
54247;SDS011;40161;39.768;2.722;2023-07-08T16:10:58;18.05;;;5.32;;